sensor_id;sensor_type;location;lat;lon;timestamp;temperature;humidity
20158;DHT22;10239;56.820;24.416;2023-08-12T00:00:02;16.00;99.90
20158;DHT22;10239;56.820;24.416;2023-08-12T00:02:36;16.10;99.90
20158;DHT22;10239;56.820;24.416;2023-08-12T00:05:05;16.10;99.90
20158;DHT22;10239;56.820;24.416;2023-08-12T00:07:33;16.20;99.90
20158;DHT22;10239;56.820;24.416;2023-08-12T00:10:02;16.20;99.90
20158;DHT22;10239;56.820;24.416;2023-08-12T00:12:32;16.10;99.90
20158;DHT22;10239;56.820;24.416;2023-08-12T00:15:01;15.90;99.90
20158;DHT22;10239;56.820;24.416;2023-08-12T00:17:30;16.00;99.90
20158;DHT22;10239;56.820;24.416;2023-08-12T00:19:58;16.00;99.90
20158;DHT22;10239;56.820;24.416;2023-08-12T00:22:26;16.00;99.90
20158;DHT22;10239;56.820;24.416;2023-08-12T00:24:54;15.90;99.90
20158;DHT22;10239;56.820;24.416;2023-08-12T00:27:21;15.80;99.90
20158;DHT22;10239;56.820;24.416;2023-08-12T00:29:49;15.80;99.90
20158;DHT22;10239;56.820;24.416;2023-08-12T00:32:18;15.90;99.90
20158;DHT22;10239;56.820;24.416;2023-08-12T00:34:45;15.90;99.90
20158;DHT22;10239;56.820;24.416;2023-08-12T00:37:14;15.80;99.90
20158;DHT22;10239;56.820;24.416;2023-08-12T00:39:42;15.80;99.90
20158;DHT22;10239;56.820;24.416;2023-08-12T00:42:10;15.70;99.90
20158;DHT22;10239;56.820;24.416;2023-08-12T00:44:37;15.50;99.90
20158;DHT22;10239;56.820;24.416;2023-08-12T00:47:05;15.50;99.90
20158;DHT22;10239;56.820;24.416;2023-08-12T00:49:33;15.40;99.90
20158;DHT22;10239;56.820;24.416;2023-08-12T00:52:01;15.30;99.90
20158;DHT22;10239;56.820;24.416;2023-08-12T00:54:29;15.30;99.90
20158;DHT22;10239;56.820;24.416;2023-08-12T00:56:58;15.30;99.90
20158;DHT22;10239;56.820;24.416;2023-08-12T00:59:26;15.20;99.90
20158;DHT22;10239;56.820;24.416;2023-08-12T01:01:54;15.10;99.90
20158;DHT22;10239;56.820;24.416;2023-08-12T01:04:21;15.10;99.90
20158;DHT22;10239;56.820;24.416;2023-08-12T01:06:50;15.20;99.90
20158;DHT22;10239;56.820;24.416;2023-08-12T01:09:18;15.20;99.90
20158;DHT22;10239;56.820;24.416;2023-08-12T01:15:07;15.10;99.90
20158;DHT22;10239;56.820;24.416;2023-08-12T01:17:38;15.20;99.90
20158;DHT22;10239;56.820;24.416;2023-08-12T01:20:11;15.10;99.90
20158;DHT22;10239;56.820;24.416;2023-08-12T01:22:44;15.20;99.90
20158;DHT22;10239;56.820;24.416;2023-08-12T01:25:14;15.20;99.90
20158;DHT22;10239;56.820;24.416;2023-08-12T01:27:42;15.20;99.90
20158;DHT22;10239;56.820;24.416;2023-08-12T01:30:10;15.20;99.90
20158;DHT22;10239;56.820;24.416;2023-08-12T01:32:49;15.20;99.90
20158;DHT22;10239;56.820;24.416;2023-08-12T01:35:44;15.30;99.90
20158;DHT22;10239;56.820;24.416;2023-08-12T01:38:15;15.30;99.90
20158;DHT22;10239;56.820;24.416;2023-08-12T01:40:45;15.40;99.90
20158;DHT22;10239;56.820;24.416;2023-08-12T01:43:14;15.30;99.90
20158;DHT22;10239;56.820;24.416;2023-08-12T01:45:42;15.30;99.90
20158;DHT22;10239;56.820;24.416;2023-08-12T01:48:11;15.20;99.90
20158;DHT22;10239;56.820;24.416;2023-08-12T01:50:39;15.30;99.90
20158;DHT22;10239;56.820;24.416;2023-08-12T01:53:06;15.20;99.90
20158;DHT22;10239;56.820;24.416;2023-08-12T01:55:34;15.30;99.90
20158;DHT22;10239;56.820;24.416;2023-08-12T01:58:02;15.40;99.90
20158;DHT22;10239;56.820;24.416;2023-08-12T02:00:29;15.40;99.90
20158;DHT22;10239;56.820;24.416;2023-08-12T02:02:57;15.50;99.90
20158;DHT22;10239;56.820;24.416;2023-08-12T02:05:25;15.50;99.90
20158;DHT22;10239;56.820;24.416;2023-08-12T02:07:53;15.50;99.90
20158;DHT22;10239;56.820;24.416;2023-08-12T02:10:20;15.60;99.90
20158;DHT22;10239;56.820;24.416;2023-08-12T02:12:48;15.60;99.90
20158;DHT22;10239;56.820;24.416;2023-08-12T02:15:17;15.60;99.90
20158;DHT22;10239;56.820;24.416;2023-08-12T02:17:44;15.60;99.90
20158;DHT22;10239;56.820;24.416;2023-08-12T02:20:12;15.50;99.90
20158;DHT22;10239;56.820;24.416;2023-08-12T02:22:40;15.50;99.90
20158;DHT22;10239;56.820;24.416;2023-08-12T02:25:08;15.40;99.90
20158;DHT22;10239;56.820;24.416;2023-08-12T02:27:35;15.40;99.90
20158;DHT22;10239;56.820;24.416;2023-08-12T02:30:04;15.30;99.90
20158;DHT22;10239;56.820;24.416;2023-08-12T02:32:32;15.20;99.90
20158;DHT22;10239;56.820;24.416;2023-08-12T02:35:00;15.20;99.90
20158;DHT22;10239;56.820;24.416;2023-08-12T02:37:29;15.10;99.90
20158;DHT22;10239;56.820;24.416;2023-08-12T02:39:57;15.00;99.90
20158;DHT22;10239;56.820;24.416;2023-08-12T02:42:25;15.00;99.90
20158;DHT22;10239;56.820;24.416;2023-08-12T02:44:53;14.90;99.90
20158;DHT22;10239;56.820;24.416;2023-08-12T02:47:20;14.90;99.90
20158;DHT22;10239;56.820;24.416;2023-08-12T02:49:48;14.90;99.90
20158;DHT22;10239;56.820;24.416;2023-08-12T02:52:15;14.80;99.90
20158;DHT22;10239;56.820;24.416;2023-08-12T02:54:43;14.70;99.90
20158;DHT22;10239;56.820;24.416;2023-08-12T02:57:11;14.80;99.90
20158;DHT22;10239;56.820;24.416;2023-08-12T02:59:39;14.80;99.90
20158;DHT22;10239;56.820;24.416;2023-08-12T03:02:06;14.70;99.90
20158;DHT22;10239;56.820;24.416;2023-08-12T03:04:34;14.70;99.90
20158;DHT22;10239;56.820;24.416;2023-08-12T03:07:02;14.60;99.90
20158;DHT22;10239;56.820;24.416;2023-08-12T03:09:30;14.50;99.90
20158;DHT22;10239;56.820;24.416;2023-08-12T03:11:58;14.50;99.90
20158;DHT22;10239;56.820;24.416;2023-08-12T03:14:30;14.60;99.90
20158;DHT22;10239;56.820;24.416;2023-08-12T03:17:00;14.60;99.90
20158;DHT22;10239;56.820;24.416;2023-08-12T03:19:28;14.70;99.90
20158;DHT22;10239;56.820;24.416;2023-08-12T03:21:57;14.80;99.90
20158;DHT22;10239;56.820;24.416;2023-08-12T03:24:26;14.90;99.90
20158;DHT22;10239;56.820;24.416;2023-08-12T03:26:53;14.90;99.90
20158;DHT22;10239;56.820;24.416;2023-08-12T03:29:22;15.00;99.90
20158;DHT22;10239;56.820;24.416;2023-08-12T03:31:49;15.00;99.90
20158;DHT22;10239;56.820;24.416;2023-08-12T03:34:17;15.00;99.90
20158;DHT22;10239;56.820;24.416;2023-08-12T03:36:44;15.00;99.90
20158;DHT22;10239;56.820;24.416;2023-08-12T03:39:17;15.00;99.90
20158;DHT22;10239;56.820;24.416;2023-08-12T03:41:44;15.00;99.90
20158;DHT22;10239;56.820;24.416;2023-08-12T03:44:12;15.00;99.90
20158;DHT22;10239;56.820;24.416;2023-08-12T03:46:39;15.10;99.90
20158;DHT22;10239;56.820;24.416;2023-08-12T03:49:07;15.20;99.90
20158;DHT22;10239;56.820;24.416;2023-08-12T03:51:35;15.30;99.90
20158;DHT22;10239;56.820;24.416;2023-08-12T03:54:02;15.40;99.90
20158;DHT22;10239;56.820;24.416;2023-08-12T03:56:31;15.50;99.90
20158;DHT22;10239;56.820;24.416;2023-08-12T03:59:02;15.50;99.90
20158;DHT22;10239;56.820;24.416;2023-08-12T04:01:30;15.60;99.90
20158;DHT22;10239;56.820;24.416;2023-08-12T04:03:57;15.60;99.90
20158;DHT22;10239;56.820;24.416;2023-08-12T04:06:25;15.70;99.90
20158;DHT22;10239;56.820;24.416;2023-08-12T04:08:54;15.70;99.90
20158;DHT22;10239;56.820;24.416;2023-08-12T04:11:21;15.70;99.90
20158;DHT22;10239;56.820;24.416;2023-08-12T04:13:49;15.90;99.90
20158;DHT22;10239;56.820;24.416;2023-08-12T04:16:17;15.90;99.90
20158;DHT22;10239;56.820;24.416;2023-08-12T04:18:44;16.00;99.90
20158;DHT22;10239;56.820;24.416;2023-08-12T04:21:12;16.00;99.90
20158;DHT22;10239;56.820;24.416;2023-08-12T04:23:40;16.00;99.90
20158;DHT22;10239;56.820;24.416;2023-08-12T04:26:08;16.00;99.90
20158;DHT22;10239;56.820;24.416;2023-08-12T04:28:35;16.10;99.90
20158;DHT22;10239;56.820;24.416;2023-08-12T04:31:06;16.20;99.90
20158;DHT22;10239;56.820;24.416;2023-08-12T04:33:37;16.20;99.90
20158;DHT22;10239;56.820;24.416;2023-08-12T04:36:05;16.30;99.90
20158;DHT22;10239;56.820;24.416;2023-08-12T04:38:34;16.40;99.90
20158;DHT22;10239;56.820;24.416;2023-08-12T04:41:06;16.50;99.90
20158;DHT22;10239;56.820;24.416;2023-08-12T04:43:34;16.60;99.90
20158;DHT22;10239;56.820;24.416;2023-08-12T04:46:03;16.70;99.90
20158;DHT22;10239;56.820;24.416;2023-08-12T04:48:33;16.80;99.90
20158;DHT22;10239;56.820;24.416;2023-08-12T04:51:01;16.90;99.90
20158;DHT22;10239;56.820;24.416;2023-08-12T04:53:30;17.00;99.90
20158;DHT22;10239;56.820;24.416;2023-08-12T04:55:58;17.10;99.90
20158;DHT22;10239;56.820;24.416;2023-08-12T04:58:26;17.40;99.90
20158;DHT22;10239;56.820;24.416;2023-08-12T05:00:54;18.30;99.90
20158;DHT22;10239;56.820;24.416;2023-08-12T05:03:22;20.20;99.90
20158;DHT22;10239;56.820;24.416;2023-08-12T05:05:52;21.90;99.90
20158;DHT22;10239;56.820;24.416;2023-08-12T05:08:24;23.00;99.90
20158;DHT22;10239;56.820;24.416;2023-08-12T05:10:52;24.10;99.90
20158;DHT22;10239;56.820;24.416;2023-08-12T05:13:21;25.00;99.90
20158;DHT22;10239;56.820;24.416;2023-08-12T05:15:51;25.40;99.90
20158;DHT22;10239;56.820;24.416;2023-08-12T05:18:21;25.60;99.90
20158;DHT22;10239;56.820;24.416;2023-08-12T05:20:56;25.80;99.90
20158;DHT22;10239;56.820;24.416;2023-08-12T05:23:28;26.10;99.90
20158;DHT22;10239;56.820;24.416;2023-08-12T05:26:00;26.40;99.90
20158;DHT22;10239;56.820;24.416;2023-08-12T05:28:32;26.40;99.90
20158;DHT22;10239;56.820;24.416;2023-08-12T05:31:07;26.40;99.90
20158;DHT22;10239;56.820;24.416;2023-08-12T05:33:35;26.70;99.90
20158;DHT22;10239;56.820;24.416;2023-08-12T05:36:03;27.20;99.90
20158;DHT22;10239;56.820;24.416;2023-08-12T05:38:31;27.10;99.90
20158;DHT22;10239;56.820;24.416;2023-08-12T05:41:02;27.80;99.90
20158;DHT22;10239;56.820;24.416;2023-08-12T05:43:34;28.60;99.90
20158;DHT22;10239;56.820;24.416;2023-08-12T05:46:18;29.60;99.90
20158;DHT22;10239;56.820;24.416;2023-08-12T05:48:53;30.30;99.90
20158;DHT22;10239;56.820;24.416;2023-08-12T05:51:47;30.80;99.90
20158;DHT22;10239;56.820;24.416;2023-08-12T05:54:15;31.80;99.90
20158;DHT22;10239;56.820;24.416;2023-08-12T05:56:43;31.90;99.90
20158;DHT22;10239;56.820;24.416;2023-08-12T05:59:11;32.40;99.90
20158;DHT22;10239;56.820;24.416;2023-08-12T06:01:40;32.80;99.90
20158;DHT22;10239;56.820;24.416;2023-08-12T06:04:08;32.80;99.90
20158;DHT22;10239;56.820;24.416;2023-08-12T06:06:36;32.80;99.60
20158;DHT22;10239;56.820;24.416;2023-08-12T06:09:06;33.20;99.60
20158;DHT22;10239;56.820;24.416;2023-08-12T06:11:34;33.50;98.30
20158;DHT22;10239;56.820;24.416;2023-08-12T06:14:03;33.50;96.60
20158;DHT22;10239;56.820;24.416;2023-08-12T06:16:31;33.40;96.30
20158;DHT22;10239;56.820;24.416;2023-08-12T06:19:04;33.20;97.00
20158;DHT22;10239;56.820;24.416;2023-08-12T06:21:34;33.60;96.60
20158;DHT22;10239;56.820;24.416;2023-08-12T06:24:02;34.00;95.30
20158;DHT22;10239;56.820;24.416;2023-08-12T06:26:30;34.30;94.00
20158;DHT22;10239;56.820;24.416;2023-08-12T06:28:58;34.20;94.10
20158;DHT22;10239;56.820;24.416;2023-08-12T06:31:27;34.20;92.90
20158;DHT22;10239;56.820;24.416;2023-08-12T06:33:54;34.20;94.10
20158;DHT22;10239;56.820;24.416;2023-08-12T06:36:24;34.50;93.10
20158;DHT22;10239;56.820;24.416;2023-08-12T06:38:52;35.00;93.20
20158;DHT22;10239;56.820;24.416;2023-08-12T06:41:20;35.10;91.30
20158;DHT22;10239;56.820;24.416;2023-08-12T06:43:48;34.60;91.00
20158;DHT22;10239;56.820;24.416;2023-08-12T06:46:17;35.00;91.20
20158;DHT22;10239;56.820;24.416;2023-08-12T06:48:44;34.80;90.60
20158;DHT22;10239;56.820;24.416;2023-08-12T06:51:16;35.20;91.00
20158;DHT22;10239;56.820;24.416;2023-08-12T06:53:45;35.80;89.90
20158;DHT22;10239;56.820;24.416;2023-08-12T06:56:13;36.10;88.10
20158;DHT22;10239;56.820;24.416;2023-08-12T06:58:41;35.90;88.10
20158;DHT22;10239;56.820;24.416;2023-08-12T07:01:08;36.00;85.10
20158;DHT22;10239;56.820;24.416;2023-08-12T07:03:40;35.20;89.50
20158;DHT22;10239;56.820;24.416;2023-08-12T07:06:08;35.50;87.00
20158;DHT22;10239;56.820;24.416;2023-08-12T07:08:36;35.90;86.90
20158;DHT22;10239;56.820;24.416;2023-08-12T07:11:03;36.30;87.90
20158;DHT22;10239;56.820;24.416;2023-08-12T07:13:32;36.70;83.90
20158;DHT22;10239;56.820;24.416;2023-08-12T07:16:01;36.80;86.50
20158;DHT22;10239;56.820;24.416;2023-08-12T07:18:28;37.00;84.80
20158;DHT22;10239;56.820;24.416;2023-08-12T07:20:56;37.20;81.50
20158;DHT22;10239;56.820;24.416;2023-08-12T07:23:25;37.50;79.50
20158;DHT22;10239;56.820;24.416;2023-08-12T07:25:53;37.00;81.40
20158;DHT22;10239;56.820;24.416;2023-08-12T07:28:20;37.20;79.40
20158;DHT22;10239;56.820;24.416;2023-08-12T07:30:48;36.60;78.60
20158;DHT22;10239;56.820;24.416;2023-08-12T07:33:16;36.80;76.90
20158;DHT22;10239;56.820;24.416;2023-08-12T07:35:44;37.00;79.80
20158;DHT22;10239;56.820;24.416;2023-08-12T07:38:11;36.80;77.80
20158;DHT22;10239;56.820;24.416;2023-08-12T07:40:38;36.90;76.50
20158;DHT22;10239;56.820;24.416;2023-08-12T07:43:08;37.00;76.80
20158;DHT22;10239;56.820;24.416;2023-08-12T07:45:36;37.30;77.70
20158;DHT22;10239;56.820;24.416;2023-08-12T07:48:03;37.30;76.00
20158;DHT22;10239;56.820;24.416;2023-08-12T07:50:31;37.50;77.90
20158;DHT22;10239;56.820;24.416;2023-08-12T07:52:59;37.70;76.30
20158;DHT22;10239;56.820;24.416;2023-08-12T07:55:27;37.30;72.50
20158;DHT22;10239;56.820;24.416;2023-08-12T07:57:57;37.20;70.50
20158;DHT22;10239;56.820;24.416;2023-08-12T08:00:25;37.10;74.40
20158;DHT22;10239;56.820;24.416;2023-08-12T08:02:52;36.80;74.50
20158;DHT22;10239;56.820;24.416;2023-08-12T08:05:20;36.70;78.20
20158;DHT22;10239;56.820;24.416;2023-08-12T08:07:49;37.30;71.10
20158;DHT22;10239;56.820;24.416;2023-08-12T08:10:16;37.20;71.30
20158;DHT22;10239;56.820;24.416;2023-08-12T08:12:44;37.00;73.60
20158;DHT22;10239;56.820;24.416;2023-08-12T08:15:12;36.60;73.00
20158;DHT22;10239;56.820;24.416;2023-08-12T08:17:40;36.50;72.60
20158;DHT22;10239;56.820;24.416;2023-08-12T08:20:09;36.90;72.30
20158;DHT22;10239;56.820;24.416;2023-08-12T08:22:38;37.40;72.10
20158;DHT22;10239;56.820;24.416;2023-08-12T08:25:07;37.40;75.60
20158;DHT22;10239;56.820;24.416;2023-08-12T08:27:34;37.50;71.60
20158;DHT22;10239;56.820;24.416;2023-08-12T08:30:02;37.40;69.20
20158;DHT22;10239;56.820;24.416;2023-08-12T08:32:31;37.40;70.70
20158;DHT22;10239;56.820;24.416;2023-08-12T08:34:59;37.40;65.70
20158;DHT22;10239;56.820;24.416;2023-08-12T08:37:27;37.40;68.00
20158;DHT22;10239;56.820;24.416;2023-08-12T08:39:54;37.00;71.60
20158;DHT22;10239;56.820;24.416;2023-08-12T08:42:24;37.30;71.20
20158;DHT22;10239;56.820;24.416;2023-08-12T08:44:53;37.60;70.60
20158;DHT22;10239;56.820;24.416;2023-08-12T08:47:25;37.20;63.40
20158;DHT22;10239;56.820;24.416;2023-08-12T08:49:57;37.20;67.80
20158;DHT22;10239;56.820;24.416;2023-08-12T08:52:26;37.30;69.10
20158;DHT22;10239;56.820;24.416;2023-08-12T08:54:55;37.30;69.10
20158;DHT22;10239;56.820;24.416;2023-08-12T08:57:28;36.50;70.80
20158;DHT22;10239;56.820;24.416;2023-08-12T09:00:06;37.10;70.00
20158;DHT22;10239;56.820;24.416;2023-08-12T09:02:42;37.50;70.40
20158;DHT22;10239;56.820;24.416;2023-08-12T09:05:11;37.70;66.90
20158;DHT22;10239;56.820;24.416;2023-08-12T09:07:41;36.80;66.70
20158;DHT22;10239;56.820;24.416;2023-08-12T09:10:10;36.60;69.10
20158;DHT22;10239;56.820;24.416;2023-08-12T09:12:42;36.70;69.40
20158;DHT22;10239;56.820;24.416;2023-08-12T09:15:10;36.30;62.10
20158;DHT22;10239;56.820;24.416;2023-08-12T09:17:38;35.80;71.00
20158;DHT22;10239;56.820;24.416;2023-08-12T09:20:06;36.20;69.50
20158;DHT22;10239;56.820;24.416;2023-08-12T09:22:43;36.10;71.20
20158;DHT22;10239;56.820;24.416;2023-08-12T09:25:11;35.80;69.90
20158;DHT22;10239;56.820;24.416;2023-08-12T09:27:39;35.90;72.10
20158;DHT22;10239;56.820;24.416;2023-08-12T09:30:07;35.70;66.10
20158;DHT22;10239;56.820;24.416;2023-08-12T09:32:36;35.70;70.40
20158;DHT22;10239;56.820;24.416;2023-08-12T09:35:15;35.80;65.20
20158;DHT22;10239;56.820;24.416;2023-08-12T09:37:43;35.50;66.50
20158;DHT22;10239;56.820;24.416;2023-08-12T09:40:12;35.30;68.60
20158;DHT22;10239;56.820;24.416;2023-08-12T09:42:45;35.30;70.60
20158;DHT22;10239;56.820;24.416;2023-08-12T09:45:14;35.30;68.30
20158;DHT22;10239;56.820;24.416;2023-08-12T09:47:43;35.10;69.30
20158;DHT22;10239;56.820;24.416;2023-08-12T09:50:11;34.90;67.30
20158;DHT22;10239;56.820;24.416;2023-08-12T09:52:40;35.30;71.20
20158;DHT22;10239;56.820;24.416;2023-08-12T09:55:09;35.60;71.40
20158;DHT22;10239;56.820;24.416;2023-08-12T09:57:41;35.80;69.30
20158;DHT22;10239;56.820;24.416;2023-08-12T10:00:11;35.70;70.70
20158;DHT22;10239;56.820;24.416;2023-08-12T10:02:45;35.70;65.40
20158;DHT22;10239;56.820;24.416;2023-08-12T10:05:23;35.50;68.60
20158;DHT22;10239;56.820;24.416;2023-08-12T10:07:54;35.50;67.60
20158;DHT22;10239;56.820;24.416;2023-08-12T10:10:22;35.40;72.10
20158;DHT22;10239;56.820;24.416;2023-08-12T10:12:50;35.40;69.70
20158;DHT22;10239;56.820;24.416;2023-08-12T10:15:17;35.30;71.80
20158;DHT22;10239;56.820;24.416;2023-08-12T10:17:46;35.10;67.10
20158;DHT22;10239;56.820;24.416;2023-08-12T10:20:20;34.80;69.70
20158;DHT22;10239;56.820;24.416;2023-08-12T10:22:49;34.50;66.60
20158;DHT22;10239;56.820;24.416;2023-08-12T10:25:20;34.30;71.40
20158;DHT22;10239;56.820;24.416;2023-08-12T10:27:51;34.40;72.30
20158;DHT22;10239;56.820;24.416;2023-08-12T10:30:20;34.40;70.40
20158;DHT22;10239;56.820;24.416;2023-08-12T10:32:48;34.20;68.00
20158;DHT22;10239;56.820;24.416;2023-08-12T10:35:16;34.30;72.90
20158;DHT22;10239;56.820;24.416;2023-08-12T10:37:49;34.30;65.70
20158;DHT22;10239;56.820;24.416;2023-08-12T10:40:22;34.00;67.70
20158;DHT22;10239;56.820;24.416;2023-08-12T10:42:50;33.70;69.80
20158;DHT22;10239;56.820;24.416;2023-08-12T10:45:18;33.90;71.30
20158;DHT22;10239;56.820;24.416;2023-08-12T10:50:44;33.90;72.30
20158;DHT22;10239;56.820;24.416;2023-08-12T10:53:33;33.50;72.40
20158;DHT22;10239;56.820;24.416;2023-08-12T10:56:04;33.30;66.90
20158;DHT22;10239;56.820;24.416;2023-08-12T11:01:11;32.60;66.60
20158;DHT22;10239;56.820;24.416;2023-08-12T11:03:43;32.30;64.70
20158;DHT22;10239;56.820;24.416;2023-08-12T11:06:12;31.50;69.70
20158;DHT22;10239;56.820;24.416;2023-08-12T11:08:47;31.30;71.40
20158;DHT22;10239;56.820;24.416;2023-08-12T11:11:25;31.30;68.90
20158;DHT22;10239;56.820;24.416;2023-08-12T11:13:57;31.20;68.30
20158;DHT22;10239;56.820;24.416;2023-08-12T11:16:51;30.70;71.50
20158;DHT22;10239;56.820;24.416;2023-08-12T11:19:20;30.70;68.10
20158;DHT22;10239;56.820;24.416;2023-08-12T11:21:49;30.60;73.40
20158;DHT22;10239;56.820;24.416;2023-08-12T11:24:19;30.50;69.40
20158;DHT22;10239;56.820;24.416;2023-08-12T11:26:46;30.50;72.30
20158;DHT22;10239;56.820;24.416;2023-08-12T11:29:15;30.80;75.10
20158;DHT22;10239;56.820;24.416;2023-08-12T11:31:46;30.80;74.10
20158;DHT22;10239;56.820;24.416;2023-08-12T11:34:14;30.70;69.70
20158;DHT22;10239;56.820;24.416;2023-08-12T11:36:42;30.50;72.60
20158;DHT22;10239;56.820;24.416;2023-08-12T11:39:10;30.30;70.50
20158;DHT22;10239;56.820;24.416;2023-08-12T11:41:38;30.20;70.50
20158;DHT22;10239;56.820;24.416;2023-08-12T11:44:05;30.10;74.40
20158;DHT22;10239;56.820;24.416;2023-08-12T11:46:33;30.10;73.60
20158;DHT22;10239;56.820;24.416;2023-08-12T11:49:01;30.20;73.90
20158;DHT22;10239;56.820;24.416;2023-08-12T11:51:29;29.90;74.60
20158;DHT22;10239;56.820;24.416;2023-08-12T11:53:56;29.50;75.00
20158;DHT22;10239;56.820;24.416;2023-08-12T11:56:24;29.40;74.80
20158;DHT22;10239;56.820;24.416;2023-08-12T11:58:53;29.50;73.50
20158;DHT22;10239;56.820;24.416;2023-08-12T12:01:21;29.30;71.10
20158;DHT22;10239;56.820;24.416;2023-08-12T12:03:52;29.10;74.90
20158;DHT22;10239;56.820;24.416;2023-08-12T12:06:36;28.80;72.80
20158;DHT22;10239;56.820;24.416;2023-08-12T12:09:06;28.90;72.20
20158;DHT22;10239;56.820;24.416;2023-08-12T12:11:38;28.70;73.50
20158;DHT22;10239;56.820;24.416;2023-08-12T12:14:08;28.30;76.30
20158;DHT22;10239;56.820;24.416;2023-08-12T12:19:08;28.30;78.90
20158;DHT22;10239;56.820;24.416;2023-08-12T12:21:40;28.10;77.70
20158;DHT22;10239;56.820;24.416;2023-08-12T12:24:09;28.00;75.10
20158;DHT22;10239;56.820;24.416;2023-08-12T12:26:37;27.80;80.10
20158;DHT22;10239;56.820;24.416;2023-08-12T12:29:05;27.70;76.20
20158;DHT22;10239;56.820;24.416;2023-08-12T12:31:36;27.80;81.20
20158;DHT22;10239;56.820;24.416;2023-08-12T12:34:04;28.00;81.50
20158;DHT22;10239;56.820;24.416;2023-08-12T12:36:34;28.00;80.00
20158;DHT22;10239;56.820;24.416;2023-08-12T12:39:03;27.90;81.70
20158;DHT22;10239;56.820;24.416;2023-08-12T12:41:32;28.00;82.10
20158;DHT22;10239;56.820;24.416;2023-08-12T12:44:00;27.90;83.60
20158;DHT22;10239;56.820;24.416;2023-08-12T12:46:30;28.00;82.10
20158;DHT22;10239;56.820;24.416;2023-08-12T12:48:58;27.90;83.00
20158;DHT22;10239;56.820;24.416;2023-08-12T12:51:25;27.80;83.00
20158;DHT22;10239;56.820;24.416;2023-08-12T12:53:53;27.50;84.00
20158;DHT22;10239;56.820;24.416;2023-08-12T12:56:21;27.20;84.30
20158;DHT22;10239;56.820;24.416;2023-08-12T12:58:49;27.00;83.40
20158;DHT22;10239;56.820;24.416;2023-08-12T13:01:16;26.90;84.00
20158;DHT22;10239;56.820;24.416;2023-08-12T13:03:44;26.70;85.10
20158;DHT22;10239;56.820;24.416;2023-08-12T13:06:12;26.60;84.50
20158;DHT22;10239;56.820;24.416;2023-08-12T13:08:40;26.40;83.30
20158;DHT22;10239;56.820;24.416;2023-08-12T13:11:08;26.40;85.60
20158;DHT22;10239;56.820;24.416;2023-08-12T13:13:36;26.40;84.90
20158;DHT22;10239;56.820;24.416;2023-08-12T13:16:04;26.30;85.90
20158;DHT22;10239;56.820;24.416;2023-08-12T13:18:34;26.40;87.40
20158;DHT22;10239;56.820;24.416;2023-08-12T13:21:02;26.50;89.90
20158;DHT22;10239;56.820;24.416;2023-08-12T13:23:30;26.50;86.60
20158;DHT22;10239;56.820;24.416;2023-08-12T13:25:58;26.50;89.00
20158;DHT22;10239;56.820;24.416;2023-08-12T13:28:25;26.40;88.00
20158;DHT22;10239;56.820;24.416;2023-08-12T13:30:53;26.30;88.20
20158;DHT22;10239;56.820;24.416;2023-08-12T13:33:20;26.10;85.60
20158;DHT22;10239;56.820;24.416;2023-08-12T13:35:48;26.10;87.60
20158;DHT22;10239;56.820;24.416;2023-08-12T13:38:17;26.00;88.30
20158;DHT22;10239;56.820;24.416;2023-08-12T13:40:44;26.10;87.40
20158;DHT22;10239;56.820;24.416;2023-08-12T13:43:12;26.00;87.30
20158;DHT22;10239;56.820;24.416;2023-08-12T13:45:39;25.90;88.40
20158;DHT22;10239;56.820;24.416;2023-08-12T13:48:07;25.90;87.30
20158;DHT22;10239;56.820;24.416;2023-08-12T13:50:36;25.80;89.40
20158;DHT22;10239;56.820;24.416;2023-08-12T13:53:04;25.80;86.50
20158;DHT22;10239;56.820;24.416;2023-08-12T13:55:32;25.60;87.70
20158;DHT22;10239;56.820;24.416;2023-08-12T13:57:59;25.50;89.30
20158;DHT22;10239;56.820;24.416;2023-08-12T14:00:27;25.40;88.50
20158;DHT22;10239;56.820;24.416;2023-08-12T14:02:55;25.40;89.30
20158;DHT22;10239;56.820;24.416;2023-08-12T14:05:22;25.40;90.60
20158;DHT22;10239;56.820;24.416;2023-08-12T14:07:50;25.50;89.70
20158;DHT22;10239;56.820;24.416;2023-08-12T14:10:18;25.40;88.90
20158;DHT22;10239;56.820;24.416;2023-08-12T14:12:54;25.40;89.10
20158;DHT22;10239;56.820;24.416;2023-08-12T14:15:23;25.40;88.30
20158;DHT22;10239;56.820;24.416;2023-08-12T14:17:50;25.40;89.80
20158;DHT22;10239;56.820;24.416;2023-08-12T14:20:18;25.40;90.30
20158;DHT22;10239;56.820;24.416;2023-08-12T14:22:46;25.40;91.10
20158;DHT22;10239;56.820;24.416;2023-08-12T14:25:14;25.40;91.00
20158;DHT22;10239;56.820;24.416;2023-08-12T14:27:41;25.30;91.20
20158;DHT22;10239;56.820;24.416;2023-08-12T14:30:09;25.20;90.50
20158;DHT22;10239;56.820;24.416;2023-08-12T14:32:37;25.10;90.90
20158;DHT22;10239;56.820;24.416;2023-08-12T14:35:05;25.00;91.50
20158;DHT22;10239;56.820;24.416;2023-08-12T14:37:32;24.90;91.30
20158;DHT22;10239;56.820;24.416;2023-08-12T14:40:00;24.90;91.00
20158;DHT22;10239;56.820;24.416;2023-08-12T14:42:28;24.80;91.00
20158;DHT22;10239;56.820;24.416;2023-08-12T14:44:55;24.70;92.50
20158;DHT22;10239;56.820;24.416;2023-08-12T14:47:23;24.60;91.90
20158;DHT22;10239;56.820;24.416;2023-08-12T14:49:51;24.50;92.40
20158;DHT22;10239;56.820;24.416;2023-08-12T14:52:20;24.50;93.30
20158;DHT22;10239;56.820;24.416;2023-08-12T14:54:48;24.50;93.20
20158;DHT22;10239;56.820;24.416;2023-08-12T14:57:16;24.40;93.60
20158;DHT22;10239;56.820;24.416;2023-08-12T14:59:44;24.40;93.70
20158;DHT22;10239;56.820;24.416;2023-08-12T15:02:13;24.40;93.30
20158;DHT22;10239;56.820;24.416;2023-08-12T15:04:41;24.30;93.20
20158;DHT22;10239;56.820;24.416;2023-08-12T15:07:08;24.30;93.70
20158;DHT22;10239;56.820;24.416;2023-08-12T15:09:37;24.30;94.00
20158;DHT22;10239;56.820;24.416;2023-08-12T15:12:05;24.40;93.30
20158;DHT22;10239;56.820;24.416;2023-08-12T15:14:32;24.30;94.40
20158;DHT22;10239;56.820;24.416;2023-08-12T15:17:00;24.20;93.40
20158;DHT22;10239;56.820;24.416;2023-08-12T15:19:27;24.10;94.90
20158;DHT22;10239;56.820;24.416;2023-08-12T15:21:55;24.10;95.30
20158;DHT22;10239;56.820;24.416;2023-08-12T15:24:22;24.10;95.40
20158;DHT22;10239;56.820;24.416;2023-08-12T15:26:49;24.20;95.20
20158;DHT22;10239;56.820;24.416;2023-08-12T15:29:17;24.30;95.10
20158;DHT22;10239;56.820;24.416;2023-08-12T15:31:44;24.10;94.40
20158;DHT22;10239;56.820;24.416;2023-08-12T15:34:12;24.10;94.40
20158;DHT22;10239;56.820;24.416;2023-08-12T15:36:39;24.00;94.90